sensor_id;sensor_type;location;lat;lon;timestamp;temperature;humidity
19172;DHT22;9718;52.200;21.052;2023-02-23T00:01:52;0.20;99.90
19172;DHT22;9718;52.200;21.052;2023-02-23T00:04:20;0.10;99.90
19172;DHT22;9718;52.200;21.052;2023-02-23T00:06:47;0.00;99.90
19172;DHT22;9718;52.200;21.052;2023-02-23T00:09:14;-0.10;99.90
19172;DHT22;9718;52.200;21.052;2023-02-23T00:11:54;-0.20;99.90
19172;DHT22;9718;52.200;21.052;2023-02-23T00:14:25;-0.20;99.90
19172;DHT22;9718;52.200;21.052;2023-02-23T00:16:57;-0.30;99.90
19172;DHT22;9718;52.200;21.052;2023-02-23T00:19:25;-0.20;99.90
19172;DHT22;9718;52.200;21.052;2023-02-23T00:21:53;-0.20;99.90
19172;DHT22;9718;52.200;21.052;2023-02-23T00:24:20;-0.20;99.90
19172;DHT22;9718;52.200;21.052;2023-02-23T00:26:48;-0.20;99.90
19172;DHT22;9718;52.200;21.052;2023-02-23T00:29:19;-0.20;99.90
19172;DHT22;9718;52.200;21.052;2023-02-23T00:31:48;-0.20;99.90
19172;DHT22;9718;52.200;21.052;2023-02-23T00:34:18;-0.20;99.90
19172;DHT22;9718;52.200;21.052;2023-02-23T00:36:52;-0.20;99.90
19172;DHT22;9718;52.200;21.052;2023-02-23T00:39:22;-0.20;99.90
19172;DHT22;9718;52.200;21.052;2023-02-23T00:41:52;-0.20;99.90
19172;DHT22;9718;52.200;21.052;2023-02-23T00:44:21;-0.20;99.90
19172;DHT22;9718;52.200;21.052;2023-02-23T00:46:50;-0.20;99.90
19172;DHT22;9718;52.200;21.052;2023-02-23T00:49:19;-0.20;99.90
19172;DHT22;9718;52.200;21.052;2023-02-23T00:51:47;-0.30;99.90
19172;DHT22;9718;52.200;21.052;2023-02-23T00:54:15;-0.20;99.90
19172;DHT22;9718;52.200;21.052;2023-02-23T00:56:43;-0.30;99.90
19172;DHT22;9718;52.200;21.052;2023-02-23T00:59:10;-0.30;99.90
19172;DHT22;9718;52.200;21.052;2023-02-23T01:01:39;-0.30;99.90
19172;DHT22;9718;52.200;21.052;2023-02-23T01:04:08;-0.40;99.90
19172;DHT22;9718;52.200;21.052;2023-02-23T01:06:36;-0.40;99.90
19172;DHT22;9718;52.200;21.052;2023-02-23T01:09:15;-0.40;99.90
19172;DHT22;9718;52.200;21.052;2023-02-23T01:11:55;-0.40;99.90
19172;DHT22;9718;52.200;21.052;2023-02-23T01:14:23;-0.30;99.90
19172;DHT22;9718;52.200;21.052;2023-02-23T01:16:50;-0.30;99.90
19172;DHT22;9718;52.200;21.052;2023-02-23T01:19:17;-0.30;99.90
19172;DHT22;9718;52.200;21.052;2023-02-23T01:21:45;-0.40;99.90
19172;DHT22;9718;52.200;21.052;2023-02-23T01:24:12;-0.50;99.90
19172;DHT22;9718;52.200;21.052;2023-02-23T01:26:42;-0.50;99.90
19172;DHT22;9718;52.200;21.052;2023-02-23T01:29:15;-0.50;99.90
19172;DHT22;9718;52.200;21.052;2023-02-23T01:31:45;-0.50;99.90
19172;DHT22;9718;52.200;21.052;2023-02-23T01:34:13;-0.50;99.90
19172;DHT22;9718;52.200;21.052;2023-02-23T01:36:42;-0.50;99.90
19172;DHT22;9718;52.200;21.052;2023-02-23T01:39:14;-0.60;99.90
19172;DHT22;9718;52.200;21.052;2023-02-23T01:41:43;-0.60;99.90
19172;DHT22;9718;52.200;21.052;2023-02-23T01:46:43;-0.60;99.90
19172;DHT22;9718;52.200;21.052;2023-02-23T01:49:18;-0.60;99.90
19172;DHT22;9718;52.200;21.052;2023-02-23T01:51:52;-0.70;99.90
19172;DHT22;9718;52.200;21.052;2023-02-23T01:54:25;-0.70;99.90
19172;DHT22;9718;52.200;21.052;2023-02-23T01:56:57;-0.70;99.90
19172;DHT22;9718;52.200;21.052;2023-02-23T01:59:32;-0.80;99.90
19172;DHT22;9718;52.200;21.052;2023-02-23T02:02:01;-0.80;99.90
19172;DHT22;9718;52.200;21.052;2023-02-23T02:04:33;-0.90;99.90
19172;DHT22;9718;52.200;21.052;2023-02-23T02:07:22;-0.90;99.90
19172;DHT22;9718;52.200;21.052;2023-02-23T02:09:53;-1.00;99.90
19172;DHT22;9718;52.200;21.052;2023-02-23T02:12:51;-1.00;99.90
19172;DHT22;9718;52.200;21.052;2023-02-23T02:15:23;-1.00;99.90
19172;DHT22;9718;52.200;21.052;2023-02-23T02:17:59;-1.00;99.90
19172;DHT22;9718;52.200;21.052;2023-02-23T02:20:57;-1.00;99.90
19172;DHT22;9718;52.200;21.052;2023-02-23T02:23:49;-1.00;99.90
19172;DHT22;9718;52.200;21.052;2023-02-23T02:29:36;-1.10;99.90
19172;DHT22;9718;52.200;21.052;2023-02-23T02:32:30;-1.00;99.90
19172;DHT22;9718;52.200;21.052;2023-02-23T02:41:04;-1.10;99.90
19172;DHT22;9718;52.200;21.052;2023-02-23T02:46:24;-0.90;99.90
19172;DHT22;9718;52.200;21.052;2023-02-23T02:54:40;-0.70;99.90
19172;DHT22;9718;52.200;21.052;2023-02-23T02:57:10;-0.80;99.90
19172;DHT22;9718;52.200;21.052;2023-02-23T02:59:46;-0.90;99.90
19172;DHT22;9718;52.200;21.052;2023-02-23T03:02:34;-1.00;99.90
19172;DHT22;9718;52.200;21.052;2023-02-23T03:05:39;-1.00;99.90
19172;DHT22;9718;52.200;21.052;2023-02-23T03:08:49;-0.90;99.90
19172;DHT22;9718;52.200;21.052;2023-02-23T03:11:39;-0.80;99.90
19172;DHT22;9718;52.200;21.052;2023-02-23T03:17:44;-0.70;99.90
19172;DHT22;9718;52.200;21.052;2023-02-23T03:20:39;-0.90;99.90
19172;DHT22;9718;52.200;21.052;2023-02-23T03:32:13;-1.10;99.90
19172;DHT22;9718;52.200;21.052;2023-02-23T03:35:22;-1.10;99.90
19172;DHT22;9718;52.200;21.052;2023-02-23T03:38:24;-1.10;99.90
19172;DHT22;9718;52.200;21.052;2023-02-23T03:41:12;-1.10;99.90
19172;DHT22;9718;52.200;21.052;2023-02-23T03:44:02;-1.00;99.90
19172;DHT22;9718;52.200;21.052;2023-02-23T03:46:50;-0.90;99.90
19172;DHT22;9718;52.200;21.052;2023-02-23T03:49:38;-0.80;99.90
19172;DHT22;9718;52.200;21.052;2023-02-23T03:52:29;-0.60;99.90
19172;DHT22;9718;52.200;21.052;2023-02-23T03:55:20;-0.60;99.90
19172;DHT22;9718;52.200;21.052;2023-02-23T03:58:12;-0.40;99.90
19172;DHT22;9718;52.200;21.052;2023-02-23T04:01:02;-0.30;99.90
19172;DHT22;9718;52.200;21.052;2023-02-23T04:03:50;-0.30;99.90
19172;DHT22;9718;52.200;21.052;2023-02-23T04:06:41;-0.20;99.90
19172;DHT22;9718;52.200;21.052;2023-02-23T04:09:28;-0.20;99.90
19172;DHT22;9718;52.200;21.052;2023-02-23T04:15:07;-0.10;99.90
19172;DHT22;9718;52.200;21.052;2023-02-23T04:17:36;0.00;99.90
19172;DHT22;9718;52.200;21.052;2023-02-23T04:20:04;0.00;99.90
19172;DHT22;9718;52.200;21.052;2023-02-23T04:22:33;0.00;99.90
19172;DHT22;9718;52.200;21.052;2023-02-23T04:25:01;0.10;99.90
19172;DHT22;9718;52.200;21.052;2023-02-23T04:27:28;0.10;99.90
19172;DHT22;9718;52.200;21.052;2023-02-23T04:29:55;0.10;99.90
19172;DHT22;9718;52.200;21.052;2023-02-23T04:32:22;0.10;99.90
19172;DHT22;9718;52.200;21.052;2023-02-23T04:34:49;0.10;99.90
19172;DHT22;9718;52.200;21.052;2023-02-23T04:37:17;0.10;99.90
19172;DHT22;9718;52.200;21.052;2023-02-23T04:39:44;0.20;99.90
19172;DHT22;9718;52.200;21.052;2023-02-23T04:42:16;0.10;99.90
19172;DHT22;9718;52.200;21.052;2023-02-23T04:44:44;0.10;99.90
19172;DHT22;9718;52.200;21.052;2023-02-23T04:47:14;0.10;99.90
19172;DHT22;9718;52.200;21.052;2023-02-23T04:49:42;0.10;99.90
19172;DHT22;9718;52.200;21.052;2023-02-23T04:52:10;0.20;99.90
19172;DHT22;9718;52.200;21.052;2023-02-23T04:54:37;0.20;99.90
19172;DHT22;9718;52.200;21.052;2023-02-23T04:57:06;0.20;99.90
19172;DHT22;9718;52.200;21.052;2023-02-23T04:59:33;0.30;99.90
19172;DHT22;9718;52.200;21.052;2023-02-23T05:02:00;0.20;99.90
19172;DHT22;9718;52.200;21.052;2023-02-23T05:04:31;0.30;99.90
19172;DHT22;9718;52.200;21.052;2023-02-23T05:06:58;0.30;99.90
19172;DHT22;9718;52.200;21.052;2023-02-23T05:09:26;0.20;99.90
19172;DHT22;9718;52.200;21.052;2023-02-23T05:11:53;0.20;99.90
19172;DHT22;9718;52.200;21.052;2023-02-23T05:14:21;0.20;99.90
19172;DHT22;9718;52.200;21.052;2023-02-23T05:16:48;0.20;99.90
19172;DHT22;9718;52.200;21.052;2023-02-23T05:19:15;0.10;99.90
19172;DHT22;9718;52.200;21.052;2023-02-23T05:21:43;0.20;99.90
19172;DHT22;9718;52.200;21.052;2023-02-23T05:24:10;0.20;99.90
19172;DHT22;9718;52.200;21.052;2023-02-23T05:26:37;0.20;99.90
19172;DHT22;9718;52.200;21.052;2023-02-23T05:29:05;0.20;99.90
19172;DHT22;9718;52.200;21.052;2023-02-23T05:31:33;0.10;99.90
19172;DHT22;9718;52.200;21.052;2023-02-23T05:34:00;0.20;99.90
19172;DHT22;9718;52.200;21.052;2023-02-23T05:36:27;0.20;99.90
19172;DHT22;9718;52.200;21.052;2023-02-23T05:38:54;0.20;99.90
19172;DHT22;9718;52.200;21.052;2023-02-23T05:41:22;0.30;99.90
19172;DHT22;9718;52.200;21.052;2023-02-23T05:43:50;0.30;99.90
19172;DHT22;9718;52.200;21.052;2023-02-23T05:46:20;0.30;99.90
19172;DHT22;9718;52.200;21.052;2023-02-23T05:48:49;0.30;99.90
19172;DHT22;9718;52.200;21.052;2023-02-23T05:51:17;0.30;99.90
19172;DHT22;9718;52.200;21.052;2023-02-23T05:53:44;0.40;99.90
19172;DHT22;9718;52.200;21.052;2023-02-23T05:56:15;0.40;99.90
19172;DHT22;9718;52.200;21.052;2023-02-23T05:58:47;0.40;99.90
19172;DHT22;9718;52.200;21.052;2023-02-23T06:01:15;0.50;99.90
19172;DHT22;9718;52.200;21.052;2023-02-23T06:03:44;0.50;99.90
19172;DHT22;9718;52.200;21.052;2023-02-23T06:06:12;0.50;99.90
19172;DHT22;9718;52.200;21.052;2023-02-23T06:08:40;0.60;99.90
19172;DHT22;9718;52.200;21.052;2023-02-23T06:11:07;0.70;99.90
19172;DHT22;9718;52.200;21.052;2023-02-23T06:13:35;0.80;99.90
19172;DHT22;9718;52.200;21.052;2023-02-23T06:16:02;0.80;99.90
19172;DHT22;9718;52.200;21.052;2023-02-23T06:18:29;0.80;99.90
19172;DHT22;9718;52.200;21.052;2023-02-23T06:21:00;0.90;99.90
19172;DHT22;9718;52.200;21.052;2023-02-23T06:23:28;0.90;99.90
19172;DHT22;9718;52.200;21.052;2023-02-23T06:25:56;0.90;99.90
19172;DHT22;9718;52.200;21.052;2023-02-23T06:28:25;0.80;99.90
19172;DHT22;9718;52.200;21.052;2023-02-23T06:30:53;0.80;99.90
19172;DHT22;9718;52.200;21.052;2023-02-23T06:33:20;0.90;99.90
19172;DHT22;9718;52.200;21.052;2023-02-23T06:35:48;1.10;99.90
19172;DHT22;9718;52.200;21.052;2023-02-23T06:38:15;1.10;99.90
19172;DHT22;9718;52.200;21.052;2023-02-23T06:40:43;1.10;99.90
19172;DHT22;9718;52.200;21.052;2023-02-23T06:43:10;1.10;99.90
19172;DHT22;9718;52.200;21.052;2023-02-23T06:45:37;1.10;99.90
19172;DHT22;9718;52.200;21.052;2023-02-23T06:48:04;1.10;99.90
19172;DHT22;9718;52.200;21.052;2023-02-23T06:50:32;1.10;99.90
19172;DHT22;9718;52.200;21.052;2023-02-23T06:52:59;1.20;99.90
19172;DHT22;9718;52.200;21.052;2023-02-23T06:55:26;1.30;99.90
19172;DHT22;9718;52.200;21.052;2023-02-23T06:57:53;1.40;99.90
19172;DHT22;9718;52.200;21.052;2023-02-23T07:00:21;1.40;99.90
19172;DHT22;9718;52.200;21.052;2023-02-23T07:02:48;1.40;99.90
19172;DHT22;9718;52.200;21.052;2023-02-23T07:05:16;1.40;99.90
19172;DHT22;9718;52.200;21.052;2023-02-23T07:07:43;1.50;99.90
19172;DHT22;9718;52.200;21.052;2023-02-23T07:10:11;1.60;99.90
19172;DHT22;9718;52.200;21.052;2023-02-23T07:12:38;1.60;99.90
19172;DHT22;9718;52.200;21.052;2023-02-23T07:15:06;1.70;99.90
19172;DHT22;9718;52.200;21.052;2023-02-23T07:17:33;1.70;99.90
19172;DHT22;9718;52.200;21.052;2023-02-23T07:20:01;1.70;99.90
19172;DHT22;9718;52.200;21.052;2023-02-23T07:22:28;1.80;99.90
19172;DHT22;9718;52.200;21.052;2023-02-23T07:24:56;1.80;99.90
19172;DHT22;9718;52.200;21.052;2023-02-23T07:27:23;1.80;99.90
19172;DHT22;9718;52.200;21.052;2023-02-23T07:29:51;2.00;99.90
19172;DHT22;9718;52.200;21.052;2023-02-23T07:32:18;2.00;99.90
19172;DHT22;9718;52.200;21.052;2023-02-23T07:34:45;2.00;99.90
19172;DHT22;9718;52.200;21.052;2023-02-23T07:37:13;2.00;99.90
19172;DHT22;9718;52.200;21.052;2023-02-23T07:39:41;2.00;99.90
19172;DHT22;9718;52.200;21.052;2023-02-23T07:42:08;2.10;99.90
19172;DHT22;9718;52.200;21.052;2023-02-23T07:44:35;2.10;99.90
19172;DHT22;9718;52.200;21.052;2023-02-23T07:47:04;2.10;99.90
19172;DHT22;9718;52.200;21.052;2023-02-23T07:49:32;2.10;99.90
19172;DHT22;9718;52.200;21.052;2023-02-23T07:52:00;2.20;99.90
19172;DHT22;9718;52.200;21.052;2023-02-23T07:54:41;2.20;99.90
19172;DHT22;9718;52.200;21.052;2023-02-23T07:57:09;2.40;99.90
19172;DHT22;9718;52.200;21.052;2023-02-23T07:59:37;2.60;99.90
19172;DHT22;9718;52.200;21.052;2023-02-23T08:02:05;2.90;99.90
19172;DHT22;9718;52.200;21.052;2023-02-23T08:04:32;3.30;99.90
19172;DHT22;9718;52.200;21.052;2023-02-23T08:07:00;3.30;99.90
19172;DHT22;9718;52.200;21.052;2023-02-23T08:09:27;3.30;99.90
19172;DHT22;9718;52.200;21.052;2023-02-23T08:11:56;3.40;99.90
19172;DHT22;9718;52.200;21.052;2023-02-23T08:14:23;3.50;99.90
19172;DHT22;9718;52.200;21.052;2023-02-23T08:16:50;3.50;99.90
19172;DHT22;9718;52.200;21.052;2023-02-23T08:19:18;3.30;99.90
19172;DHT22;9718;52.200;21.052;2023-02-23T08:21:49;3.50;99.90
19172;DHT22;9718;52.200;21.052;2023-02-23T08:24:16;4.00;99.90
19172;DHT22;9718;52.200;21.052;2023-02-23T08:26:44;4.50;99.90
19172;DHT22;9718;52.200;21.052;2023-02-23T08:29:11;4.60;99.90
19172;DHT22;9718;52.200;21.052;2023-02-23T08:31:38;5.00;99.90
19172;DHT22;9718;52.200;21.052;2023-02-23T08:34:06;5.00;99.90
19172;DHT22;9718;52.200;21.052;2023-02-23T08:36:33;5.20;99.90
19172;DHT22;9718;52.200;21.052;2023-02-23T08:39:00;5.40;99.90
19172;DHT22;9718;52.200;21.052;2023-02-23T08:41:28;5.30;99.90
19172;DHT22;9718;52.200;21.052;2023-02-23T08:43:57;5.10;99.90
19172;DHT22;9718;52.200;21.052;2023-02-23T08:46:25;5.10;99.90
19172;DHT22;9718;52.200;21.052;2023-02-23T08:48:52;5.10;99.90
19172;DHT22;9718;52.200;21.052;2023-02-23T08:51:19;4.80;99.90
19172;DHT22;9718;52.200;21.052;2023-02-23T08:53:46;4.70;99.90
19172;DHT22;9718;52.200;21.052;2023-02-23T08:56:14;4.80;99.90
19172;DHT22;9718;52.200;21.052;2023-02-23T08:58:41;4.70;99.90
19172;DHT22;9718;52.200;21.052;2023-02-23T09:01:18;5.00;99.90
19172;DHT22;9718;52.200;21.052;2023-02-23T09:03:46;5.10;99.90
19172;DHT22;9718;52.200;21.052;2023-02-23T09:06:17;5.20;99.90
19172;DHT22;9718;52.200;21.052;2023-02-23T09:08:45;5.30;99.90
19172;DHT22;9718;52.200;21.052;2023-02-23T09:11:12;5.30;99.90
19172;DHT22;9718;52.200;21.052;2023-02-23T09:13:40;5.50;99.90
19172;DHT22;9718;52.200;21.052;2023-02-23T09:16:07;5.50;99.90
19172;DHT22;9718;52.200;21.052;2023-02-23T09:18:34;5.60;99.90
19172;DHT22;9718;52.200;21.052;2023-02-23T09:21:04;5.90;99.90
19172;DHT22;9718;52.200;21.052;2023-02-23T09:23:35;6.00;99.90
19172;DHT22;9718;52.200;21.052;2023-02-23T09:26:04;6.40;99.90
19172;DHT22;9718;52.200;21.052;2023-02-23T09:28:33;6.30;99.90
19172;DHT22;9718;52.200;21.052;2023-02-23T09:31:09;6.30;99.90
19172;DHT22;9718;52.200;21.052;2023-02-23T09:33:36;6.40;99.90
19172;DHT22;9718;52.200;21.052;2023-02-23T09:36:07;6.90;99.90
19172;DHT22;9718;52.200;21.052;2023-02-23T09:38:34;7.10;99.90
19172;DHT22;9718;52.200;21.052;2023-02-23T09:41:01;7.00;99.90
19172;DHT22;9718;52.200;21.052;2023-02-23T09:43:59;7.30;99.90
19172;DHT22;9718;52.200;21.052;2023-02-23T09:49:05;7.00;99.90
19172;DHT22;9718;52.200;21.052;2023-02-23T09:51:39;7.20;99.90
19172;DHT22;9718;52.200;21.052;2023-02-23T09:54:10;6.90;99.90
19172;DHT22;9718;52.200;21.052;2023-02-23T09:56:44;6.70;99.90
19172;DHT22;9718;52.200;21.052;2023-02-23T09:59:14;6.50;99.90
19172;DHT22;9718;52.200;21.052;2023-02-23T10:01:57;6.70;99.90
19172;DHT22;9718;52.200;21.052;2023-02-23T10:04:42;6.70;99.90
19172;DHT22;9718;52.200;21.052;2023-02-23T10:07:19;6.70;99.90
19172;DHT22;9718;52.200;21.052;2023-02-23T10:16:06;7.30;99.90
19172;DHT22;9718;52.200;21.052;2023-02-23T10:18:50;7.50;99.90
19172;DHT22;9718;52.200;21.052;2023-02-23T10:21:32;7.40;99.90
19172;DHT22;9718;52.200;21.052;2023-02-23T10:24:28;7.40;99.90
19172;DHT22;9718;52.200;21.052;2023-02-23T10:27:14;7.30;99.90
19172;DHT22;9718;52.200;21.052;2023-02-23T10:29:48;7.40;99.90
19172;DHT22;9718;52.200;21.052;2023-02-23T10:34:52;7.80;99.90
19172;DHT22;9718;52.200;21.052;2023-02-23T10:37:19;7.60;99.90
19172;DHT22;9718;52.200;21.052;2023-02-23T10:39:47;7.50;99.90
19172;DHT22;9718;52.200;21.052;2023-02-23T10:42:25;7.90;99.90
19172;DHT22;9718;52.200;21.052;2023-02-23T10:44:55;7.90;99.90
19172;DHT22;9718;52.200;21.052;2023-02-23T10:47:26;7.90;99.90
19172;DHT22;9718;52.200;21.052;2023-02-23T10:49:56;8.00;99.90
19172;DHT22;9718;52.200;21.052;2023-02-23T10:54:54;8.10;99.90
19172;DHT22;9718;52.200;21.052;2023-02-23T10:57:37;7.90;99.90
19172;DHT22;9718;52.200;21.052;2023-02-23T11:02:43;7.90;99.90
19172;DHT22;9718;52.200;21.052;2023-02-23T11:08:37;7.70;99.90
19172;DHT22;9718;52.200;21.052;2023-02-23T11:13:43;8.40;99.90
19172;DHT22;9718;52.200;21.052;2023-02-23T11:16:13;8.40;99.90
19172;DHT22;9718;52.200;21.052;2023-02-23T11:21:47;8.60;99.90
19172;DHT22;9718;52.200;21.052;2023-02-23T11:24:28;8.70;99.90
19172;DHT22;9718;52.200;21.052;2023-02-23T11:27:01;8.50;99.90
19172;DHT22;9718;52.200;21.052;2023-02-23T11:29:44;8.30;99.90
19172;DHT22;9718;52.200;21.052;2023-02-23T11:32:21;8.30;99.90
19172;DHT22;9718;52.200;21.052;2023-02-23T11:35:31;8.20;99.90
19172;DHT22;9718;52.200;21.052;2023-02-23T11:37:57;8.10;99.90
19172;DHT22;9718;52.200;21.052;2023-02-23T11:40:28;8.00;99.90
19172;DHT22;9718;52.200;21.052;2023-02-23T11:43:06;7.70;99.90
19172;DHT22;9718;52.200;21.052;2023-02-23T11:45:49;7.50;99.90
19172;DHT22;9718;52.200;21.052;2023-02-23T11:50:49;7.40;99.90
19172;DHT22;9718;52.200;21.052;2023-02-23T11:53:30;7.40;99.90
19172;DHT22;9718;52.200;21.052;2023-02-23T11:56:01;7.60;99.90
19172;DHT22;9718;52.200;21.052;2023-02-23T11:58:44;7.70;99.90
19172;DHT22;9718;52.200;21.052;2023-02-23T12:01:15;7.60;99.90
19172;DHT22;9718;52.200;21.052;2023-02-23T12:03:52;7.70;99.90
19172;DHT22;9718;52.200;21.052;2023-02-23T12:06:37;7.60;99.90
19172;DHT22;9718;52.200;21.052;2023-02-23T12:09:25;7.70;99.90
19172;DHT22;9718;52.200;21.052;2023-02-23T12:12:06;7.70;99.90
19172;DHT22;9718;52.200;21.052;2023-02-23T12:14:52;7.60;99.90
19172;DHT22;9718;52.200;21.052;2023-02-23T12:17:26;7.60;99.90
19172;DHT22;9718;52.200;21.052;2023-02-23T12:20:03;7.40;99.90
19172;DHT22;9718;52.200;21.052;2023-02-23T12:22:42;7.40;99.90
19172;DHT22;9718;52.200;21.052;2023-02-23T12:25:11;7.50;99.90
19172;DHT22;9718;52.200;21.052;2023-02-23T12:27:59;7.60;99.90
19172;DHT22;9718;52.200;21.052;2023-02-23T12:30:52;7.40;99.90
19172;DHT22;9718;52.200;21.052;2023-02-23T12:33:41;7.40;99.90
19172;DHT22;9718;52.200;21.052;2023-02-23T12:36:31;7.60;99.90
19172;DHT22;9718;52.200;21.052;2023-02-23T12:44:50;7.30;99.90
19172;DHT22;9718;52.200;21.052;2023-02-23T12:50:10;7.10;99.90
19172;DHT22;9718;52.200;21.052;2023-02-23T12:52:50;7.00;99.90
19172;DHT22;9718;52.200;21.052;2023-02-23T13:06:52;6.90;99.90
19172;DHT22;9718;52.200;21.052;2023-02-23T13:18:35;7.00;99.90
19172;DHT22;9718;52.200;21.052;2023-02-23T13:26:45;6.80;99.90
19172;DHT22;9718;52.200;21.052;2023-02-23T13:29:24;6.70;99.90
19172;DHT22;9718;52.200;21.052;2023-02-23T13:31:53;6.80;99.90
19172;DHT22;9718;52.200;21.052;2023-02-23T13:34:26;6.70;99.90
19172;DHT22;9718;52.200;21.052;2023-02-23T13:36:56;6.80;99.90
19172;DHT22;9718;52.200;21.052;2023-02-23T13:42:42;6.70;99.90
19172;DHT22;9718;52.200;21.052;2023-02-23T13:51:35;6.70;99.90
19172;DHT22;9718;52.200;21.052;2023-02-23T13:59:21;6.80;99.90
19172;DHT22;9718;52.200;21.052;2023-02-23T14:01:50;6.70;99.90
19172;DHT22;9718;52.200;21.052;2023-02-23T14:04:25;6.60;99.90
19172;DHT22;9718;52.200;21.052;2023-02-23T14:09:54;6.70;99.90
19172;DHT22;9718;52.200;21.052;2023-02-23T14:12:40;6.60;99.90
19172;DHT22;9718;52.200;21.052;2023-02-23T14:15:27;6.60;99.90
19172;DHT22;9718;52.200;21.052;2023-02-23T14:18:03;6.40;99.90
19172;DHT22;9718;52.200;21.052;2023-02-23T14:25:51;6.40;99.90
19172;DHT22;9718;52.200;21.052;2023-02-23T14:41:54;6.30;99.90
19172;DHT22;9718;52.200;21.052;2023-02-23T14:44:28;6.40;99.90
19172;DHT22;9718;52.200;21.052;2023-02-23T14:49:42;6.30;99.90
19172;DHT22;9718;52.200;21.052;2023-02-23T14:54:45;6.30;99.90
19172;DHT22;9718;52.200;21.052;2023-02-23T14:57:24;6.40;99.90
19172;DHT22;9718;52.200;21.052;2023-02-23T15:00:05;6.40;99.90
19172;DHT22;9718;52.200;21.052;2023-02-23T15:02:33;6.40;99.90
19172;DHT22;9718;52.200;21.052;2023-02-23T15:05:21;6.30;99.90
19172;DHT22;9718;52.200;21.052;2023-02-23T15:07:49;6.30;99.90
19172;DHT22;9718;52.200;21.052;2023-02-23T15:10:23;6.30;99.90
19172;DHT22;9718;52.200;21.052;2023-02-23T15:12:52;6.30;99.90
19172;DHT22;9718;52.200;21.052;2023-02-23T15:15:22;6.20;99.90
19172;DHT22;9718;52.200;21.052;2023-02-23T15:17:54;6.20;99.90
19172;DHT22;9718;52.200;21.052;2023-02-23T15:20:23;6.10;99.90
19172;DHT22;9718;52.200;21.052;2023-02-23T15:23:01;6.10;99.90
19172;DHT22;9718;52.200;21.052;2023-02-23T15:25:35;6.00;99.90
19172;DHT22;9718;52.200;21.052;2023-02-23T15:28:14;6.00;99.90
19172;DHT22;9718;52.200;21.052;2023-02-23T15:30:46;5.90;99.90
19172;DHT22;9718;52.200;21.052;2023-02-23T15:33:16;5.80;99.90
19172;DHT22;9718;52.200;21.052;2023-02-23T15:36:08;5.70;99.90
19172;DHT22;9718;52.200;21.052;2023-02-23T15:38:44;5.70;99.90
19172;DHT22;9718;52.200;21.052;2023-02-23T15:41:29;5.70;99.90
19172;DHT22;9718;52.200;21.052;2023-02-23T15:46:35;5.40;99.90
19172;DHT22;9718;52.200;21.052;2023-02-23T15:49:04;5.40;99.90
19172;DHT22;9718;52.200;21.052;2023-02-23T15:51:39;5.30;99.90
19172;DHT22;9718;52.200;21.052;2023-02-23T15:54:29;5.20;99.90
19172;DHT22;9718;52.200;21.052;2023-02-23T15:57:04;5.10;99.90
19172;DHT22;9718;52.200;21.052;2023-02-23T15:59:36;5.00;99.90
19172;DHT22;9718;52.200;21.052;2023-02-23T16:02:14;4.90;99.90
19172;DHT22;9718;52.200;21.052;2023-02-23T16:04:44;4.80;99.90
19172;DHT22;9718;52.200;21.052;2023-02-23T16:07:21;4.70;99.90
19172;DHT22;9718;52.200;21.052;2023-02-23T16:12:25;4.70;99.90
19172;DHT22;9718;52.200;21.052;2023-02-23T16:14:58;4.60;99.90
19172;DHT22;9718;52.200;21.052;2023-02-23T16:17:33;4.50;99.90
19172;DHT22;9718;52.200;21.052;2023-02-23T16:22:40;4.30;99.90
19172;DHT22;9718;52.200;21.052;2023-02-23T16:25:12;4.30;99.90
19172;DHT22;9718;52.200;21.052;2023-02-23T16:27:41;4.20;99.90
19172;DHT22;9718;52.200;21.052;2023-02-23T16:30:21;4.10;99.90
19172;DHT22;9718;52.200;21.052;2023-02-23T16:33:21;4.10;99.90
19172;DHT22;9718;52.200;21.052;2023-02-23T16:38:55;3.90;99.90
19172;DHT22;9718;52.200;21.052;2023-02-23T16:41:25;3.90;99.90
19172;DHT22;9718;52.200;21.052;2023-02-23T16:43:57;3.80;99.90
19172;DHT22;9718;52.200;21.052;2023-02-23T16:46:29;3.80;99.90
19172;DHT22;9718;52.200;21.052;2023-02-23T16:48:57;3.80;99.90
19172;DHT22;9718;52.200;21.052;2023-02-23T16:51:26;3.80;99.90
19172;DHT22;9718;52.200;21.052;2023-02-23T16:53:53;3.80;99.90
19172;DHT22;9718;52.200;21.052;2023-02-23T16:56:21;3.70;99.90
19172;DHT22;9718;52.200;21.052;2023-02-23T16:58:54;3.70;99.90
19172;DHT22;9718;52.200;21.052;2023-02-23T17:01:23;3.60;99.90
19172;DHT22;9718;52.200;21.052;2023-02-23T17:03:51;3.60;99.90
19172;DHT22;9718;52.200;21.052;2023-02-23T17:06:21;3.50;99.90
19172;DHT22;9718;52.200;21.052;2023-02-23T17:08:48;3.50;99.90
19172;DHT22;9718;52.200;21.052;2023-02-23T17:11:25;3.50;99.90
19172;DHT22;9718;52.200;21.052;2023-02-23T17:13:52;3.50;99.90
19172;DHT22;9718;52.200;21.052;2023-02-23T17:16:19;3.40;99.90
19172;DHT22;9718;52.200;21.052;2023-02-23T17:18:47;3.40;99.90
19172;DHT22;9718;52.200;21.052;2023-02-23T17:21:15;3.40;99.90
19172;DHT22;9718;52.200;21.052;2023-02-23T17:23:49;3.40;99.90
19172;DHT22;9718;52.200;21.052;2023-02-23T17:26:22;3.40;99.90
19172;DHT22;9718;52.200;21.052;2023-02-23T17:28:50;3.40;99.90
19172;DHT22;9718;52.200;21.052;2023-02-23T17:31:18;3.40;99.90
19172;DHT22;9718;52.200;21.052;2023-02-23T17:33:46;3.40;99.90
19172;DHT22;9718;52.200;21.052;2023-02-23T17:36:15;3.40;99.90
19172;DHT22;9718;52.200;21.052;2023-02-23T17:38:43;3.40;99.90
19172;DHT22;9718;52.200;21.052;2023-02-23T17:41:17;3.40;99.90
19172;DHT22;9718;52.200;21.052;2023-02-23T17:43:45;3.40;99.90
19172;DHT22;9718;52.200;21.052;2023-02-23T17:46:12;3.40;99.90
19172;DHT22;9718;52.200;21.052;2023-02-23T17:48:39;3.40;99.90
19172;DHT22;9718;52.200;21.052;2023-02-23T17:51:12;3.40;99.90
19172;DHT22;9718;52.200;21.052;2023-02-23T17:53:39;3.40;99.90
19172;DHT22;9718;52.200;21.052;2023-02-23T17:56:09;3.40;99.90
19172;DHT22;9718;52.200;21.052;2023-02-23T17:58:36;3.40;99.90
19172;DHT22;9718;52.200;21.052;2023-02-23T18:01:05;3.40;99.90
19172;DHT22;9718;52.200;21.052;2023-02-23T18:03:36;3.50;99.90
19172;DHT22;9718;52.200;21.052;2023-02-23T18:06:06;3.50;99.90
19172;DHT22;9718;52.200;21.052;2023-02-23T18:08:35;3.50;99.90
19172;DHT22;9718;52.200;21.052;2023-02-23T18:11:03;3.60;99.90
19172;DHT22;9718;52.200;21.052;2023-02-23T18:13:31;3.60;99.90
19172;DHT22;9718;52.200;21.052;2023-02-23T18:16:08;3.70;99.90
19172;DHT22;9718;52.200;21.052;2023-02-23T18:18:38;3.80;99.90
19172;DHT22;9718;52.200;21.052;2023-02-23T18:21:11;3.80;99.90
19172;DHT22;9718;52.200;21.052;2023-02-23T18:23:38;3.90;99.90
19172;DHT22;9718;52.200;21.052;2023-02-23T18:26:11;3.90;99.90
19172;DHT22;9718;52.200;21.052;2023-02-23T18:28:39;4.00;99.90
19172;DHT22;9718;52.200;21.052;2023-02-23T18:31:13;4.00;99.90
19172;DHT22;9718;52.200;21.052;2023-02-23T18:33:41;4.00;99.90
19172;DHT22;9718;52.200;21.052;2023-02-23T18:36:19;4.00;99.90
19172;DHT22;9718;52.200;21.052;2023-02-23T18:38:46;4.00;99.90
19172;DHT22;9718;52.200;21.052;2023-02-23T18:41:13;4.00;99.90
19172;DHT22;9718;52.200;21.052;2023-02-23T18:43:40;4.00;99.90
19172;DHT22;9718;52.200;21.052;2023-02-23T18:46:10;4.00;99.90
19172;DHT22;9718;52.200;21.052;2023-02-23T18:48:37;4.00;99.90